Warning: Javascript must be enabled to use all the features on this page!


Page Loading - Please Wait...

* We've detected you're using a mobile device. Find our Next Generation Station Page here.
Click to hideNews Bulletins

Peak Streamflow for the Nation

USGS 02112360 MITCHELL RIVER NEAR STATE ROAD, NC

Surry County, North Carolina
Hydrologic Unit Code 03040101
Latitude  36°18'41", Longitude  80°48'26" NAD83
Drainage area 78.8  square miles
Gage datum 927.12 feet above NGVD29
Output formats
Table
Graph
Tab-separated file
peakfq (watstore) format
Reselect output format
Water
Year
Date Gage
Height
(feet)
Stream-
flow
(cfs)
1940 1940-08 18.00Bd 9,0002,7,Bd
1965 1964-10-16 7.38 3,010
1966 1966-02-13 9.90 4,220
1967 1966-10-19 3.92 1,050
1968 1968-07-12 3.92 812
1969 1968-10-19 6.23 2,290
1970 1970-08-10 11.42 4,910
1971 1971-09-21 12.07 5,200
1972 1972-06-21 8.95 3,700
1973 1973-04-27 7.23 2,740
1974 1974-04-04 9.23 3,840
1975 1975-03-14 9.15 3,800
1976 1975-10-17 11.80 5,080
1977 1976-10-09 6.66 2,430
1978 1978-01-26 7.68 3,010
1979 1979-09-22 16.42 7,470
1980 1980-04-09 9.91 4,610
1981 1981-09-05 14.07 6,510
1982 1982-06-12 5.71 2,260
1983 1983-04-10 13.70 6,340
1984 1984-05-28 7.63 3,420
1985 1985-08-18 11.79 5,480
1986 1985-11-04 4.38 1,380
1987 1987-03-01 10.09 4,700
1988 1987-11-10 3.25 581
1989 1989-03-06 8.51 3,880
1990 1989-10-01   1,3001
1991 1990-10-23 5.86 2,360
1992 1992-04-21 14.07 6,510
1993 1993-03-23 12.49 5,800
1994 1994-08-17 6.68 2,790
1995 1995-07-04 6.95 2,970
1996 1996-08-12 9.89 4,600
1997 1996-11-08 6.89 2,930
1998 1998-01-08 11.05 5,150
1999 1998-10-08 4.48 1,240
2000 2000-09-05 5.32 1,830
2001 2001-08-13 4.27 1,120
2002 2002-09-19 7.74 3,470
2003 2003-02-22 6.83 2,880
2004 2004-09-08 12.11 5,630
2005 2005-01-14 7.20 3,170
2006 2005-10-08 10.38 4,840
2007 2007-03-02 5.78 2,170
2008 2007-10-26 4.73 1,430
2009 2009-05-27 6.84 2,930
2010 2010-01-25 7.75 3,480
2011 2011-03-06 8.63 3,940
2012 2012-05-14 6.68 2,810
2013 2013-07-27 7.64 3,420
2014 2013-12-23 5.02 1,630
?
  Peak Gage-Height Qualification Codes.
?
  Peak Streamflow Qualification Codes.